sensor_id;sensor_type;location;lat;lon;timestamp;P1;durP1;ratioP1;P2;durP2;ratioP2
24873;SDS011;12945;42.648;23.370;2022-11-14T00:01:25;28.08;;;16.02;;
24873;SDS011;12945;42.648;23.370;2022-11-14T00:03:51;29.70;;;16.70;;
24873;SDS011;12945;42.648;23.370;2022-11-14T00:06:16;25.52;;;15.40;;
24873;SDS011;12945;42.648;23.370;2022-11-14T00:08:41;25.30;;;15.70;;
24873;SDS011;12945;42.648;23.370;2022-11-14T00:11:07;26.17;;;15.63;;
24873;SDS011;12945;42.648;23.370;2022-11-14T00:13:34;25.90;;;14.70;;
24873;SDS011;12945;42.648;23.370;2022-11-14T00:15:59;24.60;;;15.18;;
24873;SDS011;12945;42.648;23.370;2022-11-14T00:18:24;27.60;;;16.33;;
24873;SDS011;12945;42.648;23.370;2022-11-14T00:20:50;24.55;;;15.23;;
24873;SDS011;12945;42.648;23.370;2022-11-14T00:23:16;26.23;;;15.65;;
24873;SDS011;12945;42.648;23.370;2022-11-14T00:25:42;29.90;;;18.08;;
24873;SDS011;12945;42.648;23.370;2022-11-14T00:28:07;30.20;;;17.25;;
24873;SDS011;12945;42.648;23.370;2022-11-14T00:30:33;27.63;;;17.42;;
24873;SDS011;12945;42.648;23.370;2022-11-14T00:32:58;30.35;;;16.95;;
24873;SDS011;12945;42.648;23.370;2022-11-14T00:35:23;31.17;;;18.27;;
24873;SDS011;12945;42.648;23.370;2022-11-14T00:37:49;29.83;;;17.05;;
24873;SDS011;12945;42.648;23.370;2022-11-14T00:40:14;32.75;;;17.60;;
24873;SDS011;12945;42.648;23.370;2022-11-14T00:42:40;27.92;;;16.55;;
24873;SDS011;12945;42.648;23.370;2022-11-14T00:45:06;26.70;;;16.52;;
24873;SDS011;12945;42.648;23.370;2022-11-14T00:47:31;28.23;;;16.27;;
24873;SDS011;12945;42.648;23.370;2022-11-14T00:49:56;26.60;;;16.73;;
24873;SDS011;12945;42.648;23.370;2022-11-14T00:52:21;27.80;;;16.00;;
24873;SDS011;12945;42.648;23.370;2022-11-14T00:54:47;29.98;;;17.10;;
24873;SDS011;12945;42.648;23.370;2022-11-14T00:57:12;29.85;;;17.58;;
24873;SDS011;12945;42.648;23.370;2022-11-14T00:59:37;31.52;;;18.38;;
24873;SDS011;12945;42.648;23.370;2022-11-14T01:02:03;34.10;;;19.30;;
24873;SDS011;12945;42.648;23.370;2022-11-14T01:04:28;37.47;;;20.50;;
24873;SDS011;12945;42.648;23.370;2022-11-14T01:06:53;40.67;;;21.20;;
24873;SDS011;12945;42.648;23.370;2022-11-14T01:09:19;36.65;;;20.55;;
24873;SDS011;12945;42.648;23.370;2022-11-14T01:11:44;37.80;;;19.83;;
24873;SDS011;12945;42.648;23.370;2022-11-14T01:14:09;37.40;;;18.95;;
24873;SDS011;12945;42.648;23.370;2022-11-14T01:16:35;31.58;;;18.83;;
24873;SDS011;12945;42.648;23.370;2022-11-14T01:19:00;29.20;;;17.17;;
24873;SDS011;12945;42.648;23.370;2022-11-14T01:21:26;28.98;;;17.95;;
24873;SDS011;12945;42.648;23.370;2022-11-14T01:23:51;33.05;;;17.92;;
24873;SDS011;12945;42.648;23.370;2022-11-14T01:26:16;28.58;;;17.38;;
24873;SDS011;12945;42.648;23.370;2022-11-14T01:28:42;28.83;;;16.60;;
24873;SDS011;12945;42.648;23.370;2022-11-14T01:31:08;30.52;;;17.15;;
24873;SDS011;12945;42.648;23.370;2022-11-14T01:33:34;29.75;;;17.85;;
24873;SDS011;12945;42.648;23.370;2022-11-14T01:35:59;26.27;;;16.48;;
24873;SDS011;12945;42.648;23.370;2022-11-14T01:38:24;28.75;;;16.55;;
24873;SDS011;12945;42.648;23.370;2022-11-14T01:40:49;33.72;;;18.33;;
24873;SDS011;12945;42.648;23.370;2022-11-14T01:45:51;33.60;;;18.70;;
24873;SDS011;12945;42.648;23.370;2022-11-14T01:48:19;35.00;;;19.63;;
24873;SDS011;12945;42.648;23.370;2022-11-14T01:50:45;32.15;;;19.08;;
24873;SDS011;12945;42.648;23.370;2022-11-14T01:53:11;31.80;;;18.00;;
24873;SDS011;12945;42.648;23.370;2022-11-14T01:55:36;35.22;;;19.30;;
24873;SDS011;12945;42.648;23.370;2022-11-14T01:58:01;34.38;;;18.85;;
24873;SDS011;12945;42.648;23.370;2022-11-14T02:00:26;36.70;;;18.98;;
24873;SDS011;12945;42.648;23.370;2022-11-14T02:02:52;33.22;;;19.38;;
24873;SDS011;12945;42.648;23.370;2022-11-14T02:05:17;37.63;;;20.50;;
24873;SDS011;12945;42.648;23.370;2022-11-14T02:07:43;36.88;;;20.83;;
24873;SDS011;12945;42.648;23.370;2022-11-14T02:10:13;39.15;;;20.85;;
24873;SDS011;12945;42.648;23.370;2022-11-14T02:12:39;44.33;;;21.60;;
24873;SDS011;12945;42.648;23.370;2022-11-14T02:15:04;41.65;;;23.50;;
24873;SDS011;12945;42.648;23.370;2022-11-14T02:17:30;36.75;;;19.83;;
24873;SDS011;12945;42.648;23.370;2022-11-14T02:20:04;36.38;;;20.65;;
24873;SDS011;12945;42.648;23.370;2022-11-14T02:22:29;39.85;;;21.38;;
24873;SDS011;12945;42.648;23.370;2022-11-14T02:24:54;43.70;;;24.67;;
24873;SDS011;12945;42.648;23.370;2022-11-14T02:27:20;46.20;;;24.80;;
24873;SDS011;12945;42.648;23.370;2022-11-14T02:29:45;47.38;;;25.45;;
24873;SDS011;12945;42.648;23.370;2022-11-14T02:32:10;43.63;;;22.88;;
24873;SDS011;12945;42.648;23.370;2022-11-14T02:34:36;42.22;;;24.05;;
24873;SDS011;12945;42.648;23.370;2022-11-14T02:37:01;44.75;;;24.50;;
24873;SDS011;12945;42.648;23.370;2022-11-14T02:39:27;48.53;;;24.85;;
24873;SDS011;12945;42.648;23.370;2022-11-14T02:41:52;49.97;;;26.67;;
24873;SDS011;12945;42.648;23.370;2022-11-14T02:44:17;44.35;;;24.75;;
24873;SDS011;12945;42.648;23.370;2022-11-14T02:46:43;51.25;;;25.92;;
24873;SDS011;12945;42.648;23.370;2022-11-14T02:49:08;44.30;;;24.55;;
24873;SDS011;12945;42.648;23.370;2022-11-14T02:51:34;47.03;;;25.35;;
24873;SDS011;12945;42.648;23.370;2022-11-14T02:53:59;46.50;;;23.67;;
24873;SDS011;12945;42.648;23.370;2022-11-14T02:56:24;47.80;;;24.60;;
24873;SDS011;12945;42.648;23.370;2022-11-14T02:58:50;45.97;;;24.20;;
24873;SDS011;12945;42.648;23.370;2022-11-14T03:01:15;40.63;;;22.63;;
24873;SDS011;12945;42.648;23.370;2022-11-14T03:03:40;39.83;;;19.67;;
24873;SDS011;12945;42.648;23.370;2022-11-14T03:06:06;41.88;;;23.65;;
24873;SDS011;12945;42.648;23.370;2022-11-14T03:08:31;43.70;;;22.52;;
24873;SDS011;12945;42.648;23.370;2022-11-14T03:11:02;44.33;;;24.60;;
24873;SDS011;12945;42.648;23.370;2022-11-14T03:13:28;40.88;;;21.00;;
24873;SDS011;12945;42.648;23.370;2022-11-14T03:15:54;41.10;;;21.13;;
24873;SDS011;12945;42.648;23.370;2022-11-14T03:18:20;57.03;;;28.65;;
24873;SDS011;12945;42.648;23.370;2022-11-14T03:20:45;48.80;;;27.40;;
24873;SDS011;12945;42.648;23.370;2022-11-14T03:23:11;58.85;;;28.42;;
24873;SDS011;12945;42.648;23.370;2022-11-14T03:25:36;55.28;;;28.73;;
24873;SDS011;12945;42.648;23.370;2022-11-14T03:28:01;48.42;;;27.23;;
24873;SDS011;12945;42.648;23.370;2022-11-14T03:30:27;55.15;;;28.13;;
24873;SDS011;12945;42.648;23.370;2022-11-14T03:32:52;65.75;;;32.35;;
24873;SDS011;12945;42.648;23.370;2022-11-14T03:35:17;71.00;;;35.25;;
24873;SDS011;12945;42.648;23.370;2022-11-14T03:37:42;108.85;;;39.22;;
24873;SDS011;12945;42.648;23.370;2022-11-14T03:40:08;87.35;;;38.10;;
24873;SDS011;12945;42.648;23.370;2022-11-14T03:42:33;79.93;;;37.50;;
24873;SDS011;12945;42.648;23.370;2022-11-14T03:44:59;71.65;;;35.45;;
24873;SDS011;12945;42.648;23.370;2022-11-14T03:47:24;69.45;;;34.90;;
24873;SDS011;12945;42.648;23.370;2022-11-14T03:49:50;68.55;;;34.45;;
24873;SDS011;12945;42.648;23.370;2022-11-14T03:52:15;70.65;;;34.55;;
24873;SDS011;12945;42.648;23.370;2022-11-14T03:54:40;62.90;;;33.55;;
24873;SDS011;12945;42.648;23.370;2022-11-14T03:57:05;64.30;;;33.97;;
24873;SDS011;12945;42.648;23.370;2022-11-14T03:59:31;59.25;;;32.80;;
24873;SDS011;12945;42.648;23.370;2022-11-14T04:01:56;60.78;;;33.15;;
24873;SDS011;12945;42.648;23.370;2022-11-14T04:04:21;66.90;;;33.22;;
24873;SDS011;12945;42.648;23.370;2022-11-14T04:06:46;66.50;;;33.65;;
24873;SDS011;12945;42.648;23.370;2022-11-14T04:09:12;67.68;;;33.83;;
24873;SDS011;12945;42.648;23.370;2022-11-14T04:11:38;66.50;;;34.22;;
24873;SDS011;12945;42.648;23.370;2022-11-14T04:14:03;68.35;;;34.60;;
24873;SDS011;12945;42.648;23.370;2022-11-14T04:16:29;62.20;;;33.13;;
24873;SDS011;12945;42.648;23.370;2022-11-14T04:18:54;64.90;;;33.53;;
24873;SDS011;12945;42.648;23.370;2022-11-14T04:21:19;67.85;;;34.42;;
24873;SDS011;12945;42.648;23.370;2022-11-14T04:23:44;64.05;;;33.20;;
24873;SDS011;12945;42.648;23.370;2022-11-14T04:26:10;65.38;;;32.72;;
24873;SDS011;12945;42.648;23.370;2022-11-14T04:28:35;56.83;;;30.58;;
24873;SDS011;12945;42.648;23.370;2022-11-14T04:31:00;60.05;;;32.72;;
24873;SDS011;12945;42.648;23.370;2022-11-14T04:33:26;60.55;;;33.10;;
24873;SDS011;12945;42.648;23.370;2022-11-14T04:35:51;63.92;;;32.15;;
24873;SDS011;12945;42.648;23.370;2022-11-14T04:38:16;77.00;;;42.20;;
24873;SDS011;12945;42.648;23.370;2022-11-14T04:40:51;82.10;;;45.00;;
24873;SDS011;12945;42.648;23.370;2022-11-14T04:43:17;82.18;;;44.85;;
24873;SDS011;12945;42.648;23.370;2022-11-14T04:45:42;76.72;;;45.08;;
24873;SDS011;12945;42.648;23.370;2022-11-14T04:48:07;90.40;;;47.90;;
24873;SDS011;12945;42.648;23.370;2022-11-14T04:50:32;76.68;;;44.83;;
24873;SDS011;12945;42.648;23.370;2022-11-14T04:52:58;70.68;;;40.05;;
24873;SDS011;12945;42.648;23.370;2022-11-14T04:55:23;68.88;;;39.80;;
24873;SDS011;12945;42.648;23.370;2022-11-14T04:57:52;62.58;;;35.92;;
24873;SDS011;12945;42.648;23.370;2022-11-14T05:00:18;69.65;;;35.88;;
24873;SDS011;12945;42.648;23.370;2022-11-14T05:02:44;62.05;;;35.33;;
24873;SDS011;12945;42.648;23.370;2022-11-14T05:05:09;62.22;;;34.22;;
24873;SDS011;12945;42.648;23.370;2022-11-14T05:07:34;58.72;;;32.65;;
24873;SDS011;12945;42.648;23.370;2022-11-14T05:09:59;56.95;;;31.00;;
24873;SDS011;12945;42.648;23.370;2022-11-14T05:12:25;52.08;;;30.50;;
24873;SDS011;12945;42.648;23.370;2022-11-14T05:14:50;52.10;;;30.17;;
24873;SDS011;12945;42.648;23.370;2022-11-14T05:17:15;57.30;;;31.58;;
24873;SDS011;12945;42.648;23.370;2022-11-14T05:19:40;50.67;;;29.55;;
24873;SDS011;12945;42.648;23.370;2022-11-14T05:22:06;51.85;;;29.85;;
24873;SDS011;12945;42.648;23.370;2022-11-14T05:24:31;58.97;;;32.45;;
24873;SDS011;12945;42.648;23.370;2022-11-14T05:26:57;59.72;;;31.30;;
24873;SDS011;12945;42.648;23.370;2022-11-14T05:29:22;55.60;;;31.23;;
24873;SDS011;12945;42.648;23.370;2022-11-14T05:31:47;52.92;;;30.10;;
24873;SDS011;12945;42.648;23.370;2022-11-14T05:34:13;54.78;;;30.02;;
24873;SDS011;12945;42.648;23.370;2022-11-14T05:36:38;63.53;;;32.22;;
24873;SDS011;12945;42.648;23.370;2022-11-14T05:39:03;50.00;;;27.77;;
24873;SDS011;12945;42.648;23.370;2022-11-14T05:41:29;48.08;;;26.00;;
24873;SDS011;12945;42.648;23.370;2022-11-14T05:43:54;64.60;;;29.98;;
24873;SDS011;12945;42.648;23.370;2022-11-14T05:46:19;57.85;;;30.15;;
24873;SDS011;12945;42.648;23.370;2022-11-14T05:48:44;57.65;;;30.23;;
24873;SDS011;12945;42.648;23.370;2022-11-14T05:51:10;55.05;;;29.02;;
24873;SDS011;12945;42.648;23.370;2022-11-14T05:53:36;53.85;;;30.20;;
24873;SDS011;12945;42.648;23.370;2022-11-14T05:56:02;57.85;;;28.92;;
24873;SDS011;12945;42.648;23.370;2022-11-14T05:58:29;53.95;;;27.77;;
24873;SDS011;12945;42.648;23.370;2022-11-14T06:01:01;67.63;;;29.48;;
24873;SDS011;12945;42.648;23.370;2022-11-14T06:03:34;61.03;;;29.15;;
24873;SDS011;12945;42.648;23.370;2022-11-14T06:06:01;72.75;;;30.95;;
24873;SDS011;12945;42.648;23.370;2022-11-14T06:08:27;63.55;;;31.35;;
24873;SDS011;12945;42.648;23.370;2022-11-14T06:10:52;80.40;;;32.22;;
24873;SDS011;12945;42.648;23.370;2022-11-14T06:13:18;87.10;;;30.88;;
24873;SDS011;12945;42.648;23.370;2022-11-14T06:15:43;67.88;;;31.45;;
24873;SDS011;12945;42.648;23.370;2022-11-14T06:18:08;62.75;;;30.55;;
24873;SDS011;12945;42.648;23.370;2022-11-14T06:20:34;62.90;;;30.45;;
24873;SDS011;12945;42.648;23.370;2022-11-14T06:23:00;66.93;;;28.27;;
24873;SDS011;12945;42.648;23.370;2022-11-14T06:25:25;63.53;;;28.02;;
24873;SDS011;12945;42.648;23.370;2022-11-14T06:27:50;67.40;;;28.27;;
24873;SDS011;12945;42.648;23.370;2022-11-14T06:30:16;54.55;;;25.95;;
24873;SDS011;12945;42.648;23.370;2022-11-14T06:32:41;61.03;;;29.55;;
24873;SDS011;12945;42.648;23.370;2022-11-14T06:35:06;70.00;;;29.88;;
24873;SDS011;12945;42.648;23.370;2022-11-14T06:37:34;56.70;;;29.13;;
24873;SDS011;12945;42.648;23.370;2022-11-14T06:39:59;62.47;;;27.45;;
24873;SDS011;12945;42.648;23.370;2022-11-14T06:42:24;64.65;;;29.13;;
24873;SDS011;12945;42.648;23.370;2022-11-14T06:44:49;62.40;;;29.15;;
24873;SDS011;12945;42.648;23.370;2022-11-14T06:47:15;61.63;;;29.60;;
24873;SDS011;12945;42.648;23.370;2022-11-14T06:49:40;50.17;;;25.52;;
24873;SDS011;12945;42.648;23.370;2022-11-14T06:52:05;58.15;;;27.13;;
24873;SDS011;12945;42.648;23.370;2022-11-14T06:54:31;58.47;;;27.13;;
24873;SDS011;12945;42.648;23.370;2022-11-14T06:56:57;51.13;;;26.48;;
24873;SDS011;12945;42.648;23.370;2022-11-14T06:59:22;55.35;;;27.45;;
24873;SDS011;12945;42.648;23.370;2022-11-14T07:01:47;52.00;;;26.35;;
24873;SDS011;12945;42.648;23.370;2022-11-14T07:04:13;58.80;;;28.15;;
24873;SDS011;12945;42.648;23.370;2022-11-14T07:06:38;48.45;;;26.38;;
24873;SDS011;12945;42.648;23.370;2022-11-14T07:09:03;48.60;;;24.92;;
24873;SDS011;12945;42.648;23.370;2022-11-14T07:11:30;45.90;;;24.40;;
24873;SDS011;12945;42.648;23.370;2022-11-14T07:13:59;43.63;;;24.35;;
24873;SDS011;12945;42.648;23.370;2022-11-14T07:16:26;43.85;;;22.65;;
24873;SDS011;12945;42.648;23.370;2022-11-14T07:18:53;47.17;;;23.90;;
24873;SDS011;12945;42.648;23.370;2022-11-14T07:21:19;48.08;;;25.25;;
24873;SDS011;12945;42.648;23.370;2022-11-14T07:23:44;46.08;;;24.70;;
24873;SDS011;12945;42.648;23.370;2022-11-14T07:26:09;44.15;;;23.95;;
24873;SDS011;12945;42.648;23.370;2022-11-14T07:28:39;50.50;;;25.25;;
24873;SDS011;12945;42.648;23.370;2022-11-14T07:31:05;42.40;;;23.67;;
24873;SDS011;12945;42.648;23.370;2022-11-14T07:33:30;51.92;;;26.50;;
24873;SDS011;12945;42.648;23.370;2022-11-14T07:35:56;47.85;;;26.27;;
24873;SDS011;12945;42.648;23.370;2022-11-14T07:38:21;53.58;;;26.60;;
24873;SDS011;12945;42.648;23.370;2022-11-14T07:40:53;67.07;;;27.33;;
24873;SDS011;12945;42.648;23.370;2022-11-14T07:43:19;51.33;;;28.20;;
24873;SDS011;12945;42.648;23.370;2022-11-14T07:45:45;58.30;;;27.95;;
24873;SDS011;12945;42.648;23.370;2022-11-14T07:48:10;57.38;;;29.38;;
24873;SDS011;12945;42.648;23.370;2022-11-14T07:50:35;61.80;;;30.20;;
24873;SDS011;12945;42.648;23.370;2022-11-14T07:53:01;53.42;;;28.27;;
24873;SDS011;12945;42.648;23.370;2022-11-14T07:55:27;57.95;;;30.05;;
24873;SDS011;12945;42.648;23.370;2022-11-14T07:57:53;60.78;;;30.67;;
24873;SDS011;12945;42.648;23.370;2022-11-14T08:00:19;60.15;;;29.27;;
24873;SDS011;12945;42.648;23.370;2022-11-14T08:02:45;52.63;;;28.27;;
24873;SDS011;12945;42.648;23.370;2022-11-14T08:05:10;58.22;;;30.85;;
24873;SDS011;12945;42.648;23.370;2022-11-14T08:07:36;63.33;;;29.33;;
24873;SDS011;12945;42.648;23.370;2022-11-14T08:10:01;63.53;;;29.88;;
24873;SDS011;12945;42.648;23.370;2022-11-14T08:12:26;51.38;;;28.70;;
24873;SDS011;12945;42.648;23.370;2022-11-14T08:14:52;53.50;;;28.65;;
24873;SDS011;12945;42.648;23.370;2022-11-14T08:17:17;57.17;;;29.63;;
24873;SDS011;12945;42.648;23.370;2022-11-14T08:19:44;63.45;;;29.92;;
24873;SDS011;12945;42.648;23.370;2022-11-14T08:22:09;52.78;;;30.05;;
24873;SDS011;12945;42.648;23.370;2022-11-14T08:24:34;59.80;;;30.77;;
24873;SDS011;12945;42.648;23.370;2022-11-14T08:26:59;59.55;;;32.17;;
24873;SDS011;12945;42.648;23.370;2022-11-14T08:29:25;66.45;;;33.80;;
24873;SDS011;12945;42.648;23.370;2022-11-14T08:31:50;58.22;;;31.38;;
24873;SDS011;12945;42.648;23.370;2022-11-14T08:34:15;66.78;;;33.00;;
24873;SDS011;12945;42.648;23.370;2022-11-14T08:36:40;54.80;;;29.83;;
24873;SDS011;12945;42.648;23.370;2022-11-14T08:39:06;59.78;;;32.00;;
24873;SDS011;12945;42.648;23.370;2022-11-14T08:41:31;58.58;;;31.70;;
24873;SDS011;12945;42.648;23.370;2022-11-14T08:43:56;58.15;;;31.73;;
24873;SDS011;12945;42.648;23.370;2022-11-14T08:46:22;57.55;;;31.55;;
24873;SDS011;12945;42.648;23.370;2022-11-14T08:48:47;55.75;;;31.33;;
24873;SDS011;12945;42.648;23.370;2022-11-14T08:51:13;58.72;;;30.70;;
24873;SDS011;12945;42.648;23.370;2022-11-14T08:53:38;53.83;;;30.10;;
24873;SDS011;12945;42.648;23.370;2022-11-14T08:56:03;53.13;;;30.42;;
24873;SDS011;12945;42.648;23.370;2022-11-14T08:58:29;52.03;;;28.90;;
24873;SDS011;12945;42.648;23.370;2022-11-14T09:00:58;50.72;;;30.50;;
24873;SDS011;12945;42.648;23.370;2022-11-14T09:03:23;54.47;;;30.08;;
24873;SDS011;12945;42.648;23.370;2022-11-14T09:05:52;54.45;;;30.55;;
24873;SDS011;12945;42.648;23.370;2022-11-14T09:08:17;49.72;;;29.50;;
24873;SDS011;12945;42.648;23.370;2022-11-14T09:10:42;53.80;;;30.73;;
24873;SDS011;12945;42.648;23.370;2022-11-14T09:13:07;52.58;;;29.02;;
24873;SDS011;12945;42.648;23.370;2022-11-14T09:15:33;55.05;;;30.27;;
24873;SDS011;12945;42.648;23.370;2022-11-14T09:17:58;54.70;;;30.27;;
24873;SDS011;12945;42.648;23.370;2022-11-14T09:20:23;55.42;;;31.70;;
24873;SDS011;12945;42.648;23.370;2022-11-14T09:22:49;56.08;;;30.55;;
24873;SDS011;12945;42.648;23.370;2022-11-14T09:25:17;58.13;;;31.15;;
24873;SDS011;12945;42.648;23.370;2022-11-14T09:27:42;55.13;;;32.38;;
24873;SDS011;12945;42.648;23.370;2022-11-14T09:30:08;54.25;;;32.00;;
24873;SDS011;12945;42.648;23.370;2022-11-14T09:32:33;60.20;;;31.35;;
24873;SDS011;12945;42.648;23.370;2022-11-14T09:34:59;57.15;;;32.53;;
24873;SDS011;12945;42.648;23.370;2022-11-14T09:37:24;51.17;;;31.33;;
24873;SDS011;12945;42.648;23.370;2022-11-14T09:39:50;58.33;;;32.40;;
24873;SDS011;12945;42.648;23.370;2022-11-14T09:45:03;51.35;;;29.05;;
24873;SDS011;12945;42.648;23.370;2022-11-14T09:47:29;51.53;;;30.27;;
24873;SDS011;12945;42.648;23.370;2022-11-14T09:49:59;54.58;;;30.27;;
24873;SDS011;12945;42.648;23.370;2022-11-14T09:57:19;46.83;;;29.45;;
24873;SDS011;12945;42.648;23.370;2022-11-14T09:59:45;47.08;;;29.65;;
24873;SDS011;12945;42.648;23.370;2022-11-14T10:04:55;46.97;;;29.08;;
24873;SDS011;12945;42.648;23.370;2022-11-14T10:27:17;42.55;;;28.10;;
24873;SDS011;12945;42.648;23.370;2022-11-14T10:37:19;54.53;;;32.30;;
24873;SDS011;12945;42.648;23.370;2022-11-14T10:42:24;51.13;;;30.25;;
24873;SDS011;12945;42.648;23.370;2022-11-14T10:45:00;47.22;;;29.17;;
24873;SDS011;12945;42.648;23.370;2022-11-14T10:47:26;49.05;;;28.85;;
24873;SDS011;12945;42.648;23.370;2022-11-14T10:49:54;45.95;;;29.73;;
24873;SDS011;12945;42.648;23.370;2022-11-14T10:52:21;47.78;;;28.75;;
24873;SDS011;12945;42.648;23.370;2022-11-14T11:00:54;47.78;;;30.73;;
24873;SDS011;12945;42.648;23.370;2022-11-14T11:03:19;45.63;;;30.80;;
24873;SDS011;12945;42.648;23.370;2022-11-14T11:05:46;46.35;;;30.00;;
24873;SDS011;12945;42.648;23.370;2022-11-14T11:08:11;48.55;;;29.80;;
24873;SDS011;12945;42.648;23.370;2022-11-14T11:10:58;45.40;;;30.92;;
24873;SDS011;12945;42.648;23.370;2022-11-14T11:13:53;50.35;;;31.83;;
24873;SDS011;12945;42.648;23.370;2022-11-14T11:16:22;51.63;;;31.75;;
24873;SDS011;12945;42.648;23.370;2022-11-14T11:18:48;48.83;;;31.83;;
24873;SDS011;12945;42.648;23.370;2022-11-14T11:21:14;46.78;;;30.05;;
24873;SDS011;12945;42.648;23.370;2022-11-14T11:23:47;44.15;;;29.95;;
24873;SDS011;12945;42.648;23.370;2022-11-14T11:26:20;43.08;;;28.98;;
24873;SDS011;12945;42.648;23.370;2022-11-14T11:28:59;41.38;;;29.10;;
24873;SDS011;12945;42.648;23.370;2022-11-14T11:31:25;45.63;;;29.90;;
24873;SDS011;12945;42.648;23.370;2022-11-14T11:33:50;43.92;;;30.23;;
24873;SDS011;12945;42.648;23.370;2022-11-14T11:36:19;46.47;;;29.70;;
24873;SDS011;12945;42.648;23.370;2022-11-14T11:38:46;39.53;;;29.35;;
24873;SDS011;12945;42.648;23.370;2022-11-14T11:41:30;44.60;;;30.08;;
24873;SDS011;12945;42.648;23.370;2022-11-14T11:44:04;48.78;;;31.25;;
24873;SDS011;12945;42.648;23.370;2022-11-14T11:46:52;42.85;;;29.38;;
24873;SDS011;12945;42.648;23.370;2022-11-14T11:49:23;47.03;;;30.48;;
24873;SDS011;12945;42.648;23.370;2022-11-14T11:51:52;45.97;;;31.23;;
24873;SDS011;12945;42.648;23.370;2022-11-14T11:54:19;47.30;;;31.70;;
24873;SDS011;12945;42.648;23.370;2022-11-14T11:56:46;51.30;;;31.85;;
24873;SDS011;12945;42.648;23.370;2022-11-14T12:01:45;47.45;;;33.10;;
24873;SDS011;12945;42.648;23.370;2022-11-14T12:04:13;45.95;;;32.40;;
24873;SDS011;12945;42.648;23.370;2022-11-14T12:06:46;46.40;;;32.05;;
24873;SDS011;12945;42.648;23.370;2022-11-14T12:09:20;51.03;;;31.38;;
24873;SDS011;12945;42.648;23.370;2022-11-14T12:11:51;46.65;;;32.65;;
24873;SDS011;12945;42.648;23.370;2022-11-14T12:33:19;54.47;;;37.22;;
24873;SDS011;12945;42.648;23.370;2022-11-14T12:35:47;64.85;;;37.47;;
24873;SDS011;12945;42.648;23.370;2022-11-14T12:38:14;56.47;;;36.78;;
24873;SDS011;12945;42.648;23.370;2022-11-14T12:40:40;52.92;;;36.47;;
24873;SDS011;12945;42.648;23.370;2022-11-14T12:45:54;53.97;;;37.08;;
24873;SDS011;12945;42.648;23.370;2022-11-14T12:50:54;51.90;;;36.38;;
24873;SDS011;12945;42.648;23.370;2022-11-14T12:56:09;64.28;;;38.50;;
24873;SDS011;12945;42.648;23.370;2022-11-14T13:01:25;61.15;;;37.42;;
24873;SDS011;12945;42.648;23.370;2022-11-14T13:03:56;53.85;;;36.58;;
24873;SDS011;12945;42.648;23.370;2022-11-14T13:06:28;52.15;;;37.13;;
24873;SDS011;12945;42.648;23.370;2022-11-14T13:11:48;60.78;;;36.10;;
24873;SDS011;12945;42.648;23.370;2022-11-14T13:17:33;56.30;;;38.88;;
24873;SDS011;12945;42.648;23.370;2022-11-14T13:23:37;58.50;;;38.65;;
24873;SDS011;12945;42.648;23.370;2022-11-14T13:28:49;57.47;;;37.22;;
24873;SDS011;12945;42.648;23.370;2022-11-14T13:33:41;57.75;;;39.88;;
24873;SDS011;12945;42.648;23.370;2022-11-14T13:36:08;61.42;;;40.40;;
24873;SDS011;12945;42.648;23.370;2022-11-14T13:38:56;60.05;;;39.05;;
24873;SDS011;12945;42.648;23.370;2022-11-14T13:41:58;54.83;;;40.05;;
24873;SDS011;12945;42.648;23.370;2022-11-14T13:51:54;65.05;;;38.83;;
24873;SDS011;12945;42.648;23.370;2022-11-14T13:54:19;59.78;;;40.17;;
24873;SDS011;12945;42.648;23.370;2022-11-14T13:57:03;61.80;;;40.83;;
24873;SDS011;12945;42.648;23.370;2022-11-14T14:12:40;66.35;;;39.53;;
24873;SDS011;12945;42.648;23.370;2022-11-14T14:20:44;77.93;;;45.67;;
24873;SDS011;12945;42.648;23.370;2022-11-14T14:25:59;87.68;;;45.88;;
24873;SDS011;12945;42.648;23.370;2022-11-14T14:31:16;70.00;;;40.88;;
24873;SDS011;12945;42.648;23.370;2022-11-14T14:33:47;74.70;;;42.30;;
24873;SDS011;12945;42.648;23.370;2022-11-14T14:36:22;84.72;;;43.28;;
24873;SDS011;12945;42.648;23.370;2022-11-14T14:38:47;82.97;;;43.28;;
24873;SDS011;12945;42.648;23.370;2022-11-14T14:41:13;78.53;;;46.05;;
24873;SDS011;12945;42.648;23.370;2022-11-14T14:43:39;73.78;;;44.08;;
24873;SDS011;12945;42.648;23.370;2022-11-14T14:46:05;72.93;;;44.92;;
24873;SDS011;12945;42.648;23.370;2022-11-14T14:48:30;82.00;;;44.00;;
24873;SDS011;12945;42.648;23.370;2022-11-14T14:50:57;74.45;;;43.40;;
24873;SDS011;12945;42.648;23.370;2022-11-14T14:53:33;80.63;;;44.90;;
24873;SDS011;12945;42.648;23.370;2022-11-14T14:56:02;80.40;;;45.83;;
24873;SDS011;12945;42.648;23.370;2022-11-14T14:58:31;84.55;;;44.85;;
24873;SDS011;12945;42.648;23.370;2022-11-14T15:03:30;94.35;;;46.92;;
24873;SDS011;12945;42.648;23.370;2022-11-14T15:05:59;91.68;;;48.65;;
24873;SDS011;12945;42.648;23.370;2022-11-14T15:08:25;92.95;;;47.78;;
24873;SDS011;12945;42.648;23.370;2022-11-14T15:10:52;84.05;;;48.10;;
24873;SDS011;12945;42.648;23.370;2022-11-14T15:13:19;92.82;;;47.10;;
24873;SDS011;12945;42.648;23.370;2022-11-14T15:15:45;85.50;;;46.75;;
24873;SDS011;12945;42.648;23.370;2022-11-14T15:18:15;103.20;;;45.42;;
24873;SDS011;12945;42.648;23.370;2022-11-14T15:25:34;92.20;;;48.08;;
24873;SDS011;12945;42.648;23.370;2022-11-14T15:28:00;88.72;;;45.97;;
24873;SDS011;12945;42.648;23.370;2022-11-14T15:30:30;94.35;;;47.13;;
24873;SDS011;12945;42.648;23.370;2022-11-14T15:32:56;102.78;;;48.20;;
24873;SDS011;12945;42.648;23.370;2022-11-14T15:35:23;99.57;;;46.13;;
24873;SDS011;12945;42.648;23.370;2022-11-14T15:37:59;100.50;;;50.22;;
24873;SDS011;12945;42.648;23.370;2022-11-14T15:40:25;101.45;;;49.47;;
24873;SDS011;12945;42.648;23.370;2022-11-14T15:42:50;97.40;;;49.40;;
24873;SDS011;12945;42.648;23.370;2022-11-14T15:45:22;107.35;;;46.80;;
24873;SDS011;12945;42.648;23.370;2022-11-14T15:47:55;93.72;;;49.15;;
24873;SDS011;12945;42.648;23.370;2022-11-14T15:50:26;121.22;;;62.35;;
24873;SDS011;12945;42.648;23.370;2022-11-14T15:53:01;119.45;;;61.50;;
24873;SDS011;12945;42.648;23.370;2022-11-14T15:55:28;101.82;;;50.38;;
24873;SDS011;12945;42.648;23.370;2022-11-14T15:57:53;103.20;;;51.35;;
24873;SDS011;12945;42.648;23.370;2022-11-14T16:00:18;100.40;;;52.60;;
24873;SDS011;12945;42.648;23.370;2022-11-14T16:02:48;106.05;;;54.72;;
24873;SDS011;12945;42.648;23.370;2022-11-14T16:05:15;107.47;;;57.13;;
24873;SDS011;12945;42.648;23.370;2022-11-14T16:07:41;115.68;;;54.35;;
24873;SDS011;12945;42.648;23.370;2022-11-14T16:10:20;106.70;;;52.78;;
24873;SDS011;12945;42.648;23.370;2022-11-14T16:12:45;98.28;;;49.00;;
24873;SDS011;12945;42.648;23.370;2022-11-14T16:15:10;105.97;;;50.58;;
24873;SDS011;12945;42.648;23.370;2022-11-14T16:17:37;107.03;;;49.92;;
24873;SDS011;12945;42.648;23.370;2022-11-14T16:20:03;98.80;;;49.55;;
24873;SDS011;12945;42.648;23.370;2022-11-14T16:22:30;102.20;;;51.20;;